sensor_id;sensor_type;location;lat;lon;timestamp;P1;durP1;ratioP1;P2;durP2;ratioP2
55314;SDS011;41619;42.816;23.226;2023-04-09T00:00:32;37.42;;;26.42;;
55314;SDS011;41619;42.816;23.226;2023-04-09T00:02:58;42.08;;;29.13;;
55314;SDS011;41619;42.816;23.226;2023-04-09T00:05:23;45.33;;;29.55;;
55314;SDS011;41619;42.816;23.226;2023-04-09T00:07:48;40.75;;;27.17;;
55314;SDS011;41619;42.816;23.226;2023-04-09T00:10:14;38.92;;;26.75;;
55314;SDS011;41619;42.816;23.226;2023-04-09T00:12:39;36.25;;;25.30;;
55314;SDS011;41619;42.816;23.226;2023-04-09T00:15:05;35.60;;;24.40;;
55314;SDS011;41619;42.816;23.226;2023-04-09T00:17:31;38.58;;;25.90;;
55314;SDS011;41619;42.816;23.226;2023-04-09T00:19:56;36.97;;;25.38;;
55314;SDS011;41619;42.816;23.226;2023-04-09T00:22:21;39.03;;;24.77;;
55314;SDS011;41619;42.816;23.226;2023-04-09T00:24:47;39.83;;;25.92;;
55314;SDS011;41619;42.816;23.226;2023-04-09T00:27:12;38.00;;;26.73;;
55314;SDS011;41619;42.816;23.226;2023-04-09T00:29:38;35.83;;;26.15;;
55314;SDS011;41619;42.816;23.226;2023-04-09T00:32:03;39.92;;;27.25;;
55314;SDS011;41619;42.816;23.226;2023-04-09T00:34:29;43.38;;;27.60;;
55314;SDS011;41619;42.816;23.226;2023-04-09T00:36:54;46.72;;;30.48;;
55314;SDS011;41619;42.816;23.226;2023-04-09T00:39:20;51.70;;;32.90;;
55314;SDS011;41619;42.816;23.226;2023-04-09T00:41:45;51.25;;;33.13;;
55314;SDS011;41619;42.816;23.226;2023-04-09T00:44:10;51.35;;;33.05;;
55314;SDS011;41619;42.816;23.226;2023-04-09T00:46:36;53.67;;;34.85;;
55314;SDS011;41619;42.816;23.226;2023-04-09T00:49:02;52.83;;;32.58;;
55314;SDS011;41619;42.816;23.226;2023-04-09T00:51:27;56.17;;;34.33;;
55314;SDS011;41619;42.816;23.226;2023-04-09T00:53:53;54.13;;;32.20;;
55314;SDS011;41619;42.816;23.226;2023-04-09T00:56:19;55.50;;;33.47;;
55314;SDS011;41619;42.816;23.226;2023-04-09T00:58:47;47.13;;;31.50;;
55314;SDS011;41619;42.816;23.226;2023-04-09T01:01:13;52.70;;;32.55;;
55314;SDS011;41619;42.816;23.226;2023-04-09T01:03:38;52.25;;;31.83;;
55314;SDS011;41619;42.816;23.226;2023-04-09T01:09:02;54.65;;;32.58;;
55314;SDS011;41619;42.816;23.226;2023-04-09T01:17:18;47.10;;;30.45;;
55314;SDS011;41619;42.816;23.226;2023-04-09T01:28:17;46.00;;;30.33;;
55314;SDS011;41619;42.816;23.226;2023-04-09T01:30:51;52.88;;;30.77;;
55314;SDS011;41619;42.816;23.226;2023-04-09T01:33:20;63.00;;;33.47;;
55314;SDS011;41619;42.816;23.226;2023-04-09T01:35:47;54.58;;;30.75;;
55314;SDS011;41619;42.816;23.226;2023-04-09T01:38:15;49.95;;;30.23;;
55314;SDS011;41619;42.816;23.226;2023-04-09T01:40:42;59.40;;;35.33;;
55314;SDS011;41619;42.816;23.226;2023-04-09T01:43:08;62.75;;;34.55;;
55314;SDS011;41619;42.816;23.226;2023-04-09T01:45:36;54.72;;;34.00;;
55314;SDS011;41619;42.816;23.226;2023-04-09T01:48:02;51.33;;;30.77;;
55314;SDS011;41619;42.816;23.226;2023-04-09T01:50:29;45.40;;;30.33;;
55314;SDS011;41619;42.816;23.226;2023-04-09T01:52:56;45.47;;;30.88;;
55314;SDS011;41619;42.816;23.226;2023-04-09T01:55:22;45.47;;;30.17;;
55314;SDS011;41619;42.816;23.226;2023-04-09T01:57:47;58.60;;;39.92;;
55314;SDS011;41619;42.816;23.226;2023-04-09T02:00:12;58.63;;;38.90;;
55314;SDS011;41619;42.816;23.226;2023-04-09T02:02:45;67.50;;;46.28;;
55314;SDS011;41619;42.816;23.226;2023-04-09T02:05:17;45.80;;;28.77;;
55314;SDS011;41619;42.816;23.226;2023-04-09T02:07:48;46.58;;;29.27;;
55314;SDS011;41619;42.816;23.226;2023-04-09T02:10:19;42.95;;;27.70;;
55314;SDS011;41619;42.816;23.226;2023-04-09T02:12:48;44.65;;;28.98;;
55314;SDS011;41619;42.816;23.226;2023-04-09T02:15:16;45.97;;;29.13;;
55314;SDS011;41619;42.816;23.226;2023-04-09T02:17:43;50.53;;;33.28;;
55314;SDS011;41619;42.816;23.226;2023-04-09T02:20:09;52.55;;;34.50;;
55314;SDS011;41619;42.816;23.226;2023-04-09T02:22:36;43.60;;;30.08;;
55314;SDS011;41619;42.816;23.226;2023-04-09T02:25:01;46.10;;;30.08;;
55314;SDS011;41619;42.816;23.226;2023-04-09T02:27:26;44.90;;;28.98;;
55314;SDS011;41619;42.816;23.226;2023-04-09T02:29:52;56.35;;;29.55;;
55314;SDS011;41619;42.816;23.226;2023-04-09T02:32:17;45.78;;;28.30;;
55314;SDS011;41619;42.816;23.226;2023-04-09T02:34:42;49.65;;;30.63;;
55314;SDS011;41619;42.816;23.226;2023-04-09T02:37:08;48.83;;;29.10;;
55314;SDS011;41619;42.816;23.226;2023-04-09T02:39:33;48.97;;;30.60;;
55314;SDS011;41619;42.816;23.226;2023-04-09T02:41:58;46.95;;;30.65;;
55314;SDS011;41619;42.816;23.226;2023-04-09T02:44:25;54.17;;;31.35;;
55314;SDS011;41619;42.816;23.226;2023-04-09T02:46:50;47.92;;;29.77;;
55314;SDS011;41619;42.816;23.226;2023-04-09T02:49:16;47.22;;;30.70;;
55314;SDS011;41619;42.816;23.226;2023-04-09T02:51:42;49.30;;;30.00;;
55314;SDS011;41619;42.816;23.226;2023-04-09T02:54:07;46.28;;;30.60;;
55314;SDS011;41619;42.816;23.226;2023-04-09T02:56:32;46.60;;;30.38;;
55314;SDS011;41619;42.816;23.226;2023-04-09T02:58:58;45.95;;;29.73;;
55314;SDS011;41619;42.816;23.226;2023-04-09T03:01:23;43.15;;;28.65;;
55314;SDS011;41619;42.816;23.226;2023-04-09T03:03:49;43.30;;;29.77;;
55314;SDS011;41619;42.816;23.226;2023-04-09T03:06:14;42.33;;;27.77;;
55314;SDS011;41619;42.816;23.226;2023-04-09T03:08:40;46.60;;;27.58;;
55314;SDS011;41619;42.816;23.226;2023-04-09T03:11:05;43.72;;;28.67;;
55314;SDS011;41619;42.816;23.226;2023-04-09T03:13:31;43.85;;;28.10;;
55314;SDS011;41619;42.816;23.226;2023-04-09T03:15:56;47.38;;;29.60;;
55314;SDS011;41619;42.816;23.226;2023-04-09T03:18:21;48.25;;;29.42;;
55314;SDS011;41619;42.816;23.226;2023-04-09T03:20:47;42.72;;;28.90;;
55314;SDS011;41619;42.816;23.226;2023-04-09T03:23:12;43.28;;;28.35;;
55314;SDS011;41619;42.816;23.226;2023-04-09T03:25:37;40.10;;;26.73;;
55314;SDS011;41619;42.816;23.226;2023-04-09T03:28:03;44.42;;;28.05;;
55314;SDS011;41619;42.816;23.226;2023-04-09T03:30:28;45.58;;;29.70;;
55314;SDS011;41619;42.816;23.226;2023-04-09T03:32:54;47.70;;;29.20;;
55314;SDS011;41619;42.816;23.226;2023-04-09T03:35:20;44.45;;;29.02;;
55314;SDS011;41619;42.816;23.226;2023-04-09T03:37:45;46.58;;;29.88;;
55314;SDS011;41619;42.816;23.226;2023-04-09T03:40:11;46.85;;;30.55;;
55314;SDS011;41619;42.816;23.226;2023-04-09T03:42:37;47.58;;;30.88;;
55314;SDS011;41619;42.816;23.226;2023-04-09T03:45:03;48.83;;;31.88;;
55314;SDS011;41619;42.816;23.226;2023-04-09T03:47:29;60.35;;;37.08;;
55314;SDS011;41619;42.816;23.226;2023-04-09T03:49:54;52.33;;;38.25;;
55314;SDS011;41619;42.816;23.226;2023-04-09T03:52:20;58.40;;;36.67;;
55314;SDS011;41619;42.816;23.226;2023-04-09T03:54:45;51.38;;;33.20;;
55314;SDS011;41619;42.816;23.226;2023-04-09T03:57:10;53.65;;;33.97;;
55314;SDS011;41619;42.816;23.226;2023-04-09T03:59:36;54.15;;;33.33;;
55314;SDS011;41619;42.816;23.226;2023-04-09T04:02:01;47.80;;;31.50;;
55314;SDS011;41619;42.816;23.226;2023-04-09T04:04:26;47.95;;;31.38;;
55314;SDS011;41619;42.816;23.226;2023-04-09T04:06:52;57.35;;;34.10;;
55314;SDS011;41619;42.816;23.226;2023-04-09T04:09:17;54.90;;;35.95;;
55314;SDS011;41619;42.816;23.226;2023-04-09T04:11:43;51.92;;;32.08;;
55314;SDS011;41619;42.816;23.226;2023-04-09T04:14:08;48.97;;;31.33;;
55314;SDS011;41619;42.816;23.226;2023-04-09T04:16:33;48.83;;;31.73;;
55314;SDS011;41619;42.816;23.226;2023-04-09T04:18:59;48.65;;;30.35;;
55314;SDS011;41619;42.816;23.226;2023-04-09T04:21:24;47.17;;;31.70;;
55314;SDS011;41619;42.816;23.226;2023-04-09T04:23:51;46.88;;;29.63;;
55314;SDS011;41619;42.816;23.226;2023-04-09T04:26:16;43.28;;;28.73;;
55314;SDS011;41619;42.816;23.226;2023-04-09T04:28:42;43.70;;;28.55;;
55314;SDS011;41619;42.816;23.226;2023-04-09T04:31:10;41.88;;;28.90;;
55314;SDS011;41619;42.816;23.226;2023-04-09T04:33:36;43.72;;;28.40;;
55314;SDS011;41619;42.816;23.226;2023-04-09T04:36:03;42.58;;;28.60;;
55314;SDS011;41619;42.816;23.226;2023-04-09T04:38:36;40.65;;;25.77;;
55314;SDS011;41619;42.816;23.226;2023-04-09T04:41:01;42.22;;;25.40;;
55314;SDS011;41619;42.816;23.226;2023-04-09T04:43:27;38.80;;;24.63;;
55314;SDS011;41619;42.816;23.226;2023-04-09T04:45:53;38.45;;;25.75;;
55314;SDS011;41619;42.816;23.226;2023-04-09T04:48:19;44.15;;;25.85;;
55314;SDS011;41619;42.816;23.226;2023-04-09T04:50:44;37.72;;;25.35;;
55314;SDS011;41619;42.816;23.226;2023-04-09T04:53:10;36.38;;;24.05;;
55314;SDS011;41619;42.816;23.226;2023-04-09T04:55:35;37.97;;;23.50;;
55314;SDS011;41619;42.816;23.226;2023-04-09T04:58:03;36.47;;;23.48;;
55314;SDS011;41619;42.816;23.226;2023-04-09T05:00:28;33.83;;;22.67;;
55314;SDS011;41619;42.816;23.226;2023-04-09T05:02:54;34.75;;;23.48;;
55314;SDS011;41619;42.816;23.226;2023-04-09T05:05:19;35.03;;;22.90;;
55314;SDS011;41619;42.816;23.226;2023-04-09T05:07:45;36.30;;;23.92;;
55314;SDS011;41619;42.816;23.226;2023-04-09T05:10:10;32.28;;;20.65;;
55314;SDS011;41619;42.816;23.226;2023-04-09T05:12:36;40.97;;;22.85;;
55314;SDS011;41619;42.816;23.226;2023-04-09T05:15:01;39.30;;;24.83;;
55314;SDS011;41619;42.816;23.226;2023-04-09T05:17:27;35.72;;;24.15;;
55314;SDS011;41619;42.816;23.226;2023-04-09T05:19:53;32.97;;;22.63;;
55314;SDS011;41619;42.816;23.226;2023-04-09T05:22:20;39.17;;;23.80;;
55314;SDS011;41619;42.816;23.226;2023-04-09T05:24:45;34.75;;;23.73;;
55314;SDS011;41619;42.816;23.226;2023-04-09T05:27:11;36.95;;;23.15;;
55314;SDS011;41619;42.816;23.226;2023-04-09T05:29:36;33.97;;;21.55;;
55314;SDS011;41619;42.816;23.226;2023-04-09T05:32:01;34.78;;;21.67;;
55314;SDS011;41619;42.816;23.226;2023-04-09T05:34:27;33.53;;;22.95;;
55314;SDS011;41619;42.816;23.226;2023-04-09T05:36:53;33.47;;;22.63;;
55314;SDS011;41619;42.816;23.226;2023-04-09T05:39:19;33.22;;;21.52;;
55314;SDS011;41619;42.816;23.226;2023-04-09T05:41:44;32.25;;;21.15;;
55314;SDS011;41619;42.816;23.226;2023-04-09T05:44:10;31.20;;;20.38;;
55314;SDS011;41619;42.816;23.226;2023-04-09T05:46:36;29.42;;;20.70;;
55314;SDS011;41619;42.816;23.226;2023-04-09T05:49:02;33.20;;;21.23;;
55314;SDS011;41619;42.816;23.226;2023-04-09T05:51:27;29.52;;;20.13;;
55314;SDS011;41619;42.816;23.226;2023-04-09T05:53:53;36.63;;;22.17;;
55314;SDS011;41619;42.816;23.226;2023-04-09T05:56:18;31.35;;;21.52;;
55314;SDS011;41619;42.816;23.226;2023-04-09T05:58:46;30.85;;;20.83;;
55314;SDS011;41619;42.816;23.226;2023-04-09T06:01:12;33.45;;;21.38;;
55314;SDS011;41619;42.816;23.226;2023-04-09T06:03:37;30.80;;;20.52;;
55314;SDS011;41619;42.816;23.226;2023-04-09T06:06:03;33.42;;;20.33;;
55314;SDS011;41619;42.816;23.226;2023-04-09T06:08:29;31.75;;;20.13;;
55314;SDS011;41619;42.816;23.226;2023-04-09T06:10:54;28.17;;;18.67;;
55314;SDS011;41619;42.816;23.226;2023-04-09T06:13:19;29.67;;;20.02;;
55314;SDS011;41619;42.816;23.226;2023-04-09T06:15:45;28.52;;;19.20;;
55314;SDS011;41619;42.816;23.226;2023-04-09T06:18:10;44.25;;;25.35;;
55314;SDS011;41619;42.816;23.226;2023-04-09T06:20:36;33.17;;;20.77;;
55314;SDS011;41619;42.816;23.226;2023-04-09T06:23:01;39.78;;;25.65;;
55314;SDS011;41619;42.816;23.226;2023-04-09T06:25:27;31.00;;;20.92;;
55314;SDS011;41619;42.816;23.226;2023-04-09T06:27:52;29.33;;;20.30;;
55314;SDS011;41619;42.816;23.226;2023-04-09T06:30:17;26.77;;;18.50;;
55314;SDS011;41619;42.816;23.226;2023-04-09T06:32:43;27.45;;;18.30;;
55314;SDS011;41619;42.816;23.226;2023-04-09T06:35:09;27.98;;;19.40;;
55314;SDS011;41619;42.816;23.226;2023-04-09T06:37:35;25.83;;;16.13;;
55314;SDS011;41619;42.816;23.226;2023-04-09T06:40:00;23.85;;;17.10;;
55314;SDS011;41619;42.816;23.226;2023-04-09T06:42:26;22.77;;;15.85;;
55314;SDS011;41619;42.816;23.226;2023-04-09T06:44:51;25.90;;;19.05;;
55314;SDS011;41619;42.816;23.226;2023-04-09T06:47:17;28.10;;;17.85;;
55314;SDS011;41619;42.816;23.226;2023-04-09T06:49:42;24.70;;;18.92;;
55314;SDS011;41619;42.816;23.226;2023-04-09T06:52:07;29.73;;;18.58;;
55314;SDS011;41619;42.816;23.226;2023-04-09T06:54:33;23.17;;;16.75;;
55314;SDS011;41619;42.816;23.226;2023-04-09T06:56:58;26.25;;;16.70;;
55314;SDS011;41619;42.816;23.226;2023-04-09T06:59:24;26.65;;;17.25;;
55314;SDS011;41619;42.816;23.226;2023-04-09T07:01:49;22.90;;;17.75;;
55314;SDS011;41619;42.816;23.226;2023-04-09T07:04:15;20.77;;;16.52;;
55314;SDS011;41619;42.816;23.226;2023-04-09T07:06:40;27.83;;;18.48;;
55314;SDS011;41619;42.816;23.226;2023-04-09T07:09:05;29.08;;;22.27;;
55314;SDS011;41619;42.816;23.226;2023-04-09T07:11:31;21.92;;;16.50;;
55314;SDS011;41619;42.816;23.226;2023-04-09T07:13:57;27.52;;;18.92;;
55314;SDS011;41619;42.816;23.226;2023-04-09T07:16:23;30.05;;;20.33;;
55314;SDS011;41619;42.816;23.226;2023-04-09T07:18:49;26.40;;;19.92;;
55314;SDS011;41619;42.816;23.226;2023-04-09T07:21:14;27.88;;;17.95;;
55314;SDS011;41619;42.816;23.226;2023-04-09T07:23:40;26.92;;;16.98;;
55314;SDS011;41619;42.816;23.226;2023-04-09T07:26:05;22.48;;;16.42;;
55314;SDS011;41619;42.816;23.226;2023-04-09T07:28:31;23.88;;;17.63;;
55314;SDS011;41619;42.816;23.226;2023-04-09T07:30:57;24.05;;;16.65;;
55314;SDS011;41619;42.816;23.226;2023-04-09T07:33:26;27.02;;;18.00;;
55314;SDS011;41619;42.816;23.226;2023-04-09T07:35:52;25.13;;;18.40;;
55314;SDS011;41619;42.816;23.226;2023-04-09T07:38:17;22.90;;;17.75;;
55314;SDS011;41619;42.816;23.226;2023-04-09T07:40:42;26.60;;;17.08;;
55314;SDS011;41619;42.816;23.226;2023-04-09T07:43:08;24.70;;;16.95;;
55314;SDS011;41619;42.816;23.226;2023-04-09T07:45:33;22.35;;;14.75;;
55314;SDS011;41619;42.816;23.226;2023-04-09T07:47:59;19.48;;;15.38;;
55314;SDS011;41619;42.816;23.226;2023-04-09T07:50:24;22.80;;;17.23;;
55314;SDS011;41619;42.816;23.226;2023-04-09T07:52:50;21.88;;;15.55;;
55314;SDS011;41619;42.816;23.226;2023-04-09T07:55:15;24.15;;;17.38;;
55314;SDS011;41619;42.816;23.226;2023-04-09T07:57:41;23.88;;;16.98;;
55314;SDS011;41619;42.816;23.226;2023-04-09T08:00:07;18.52;;;13.60;;
55314;SDS011;41619;42.816;23.226;2023-04-09T08:02:33;18.52;;;14.20;;
55314;SDS011;41619;42.816;23.226;2023-04-09T08:04:59;18.83;;;14.60;;
55314;SDS011;41619;42.816;23.226;2023-04-09T08:07:24;19.92;;;15.13;;
55314;SDS011;41619;42.816;23.226;2023-04-09T08:09:49;20.83;;;16.05;;
55314;SDS011;41619;42.816;23.226;2023-04-09T08:12:15;23.25;;;17.17;;
55314;SDS011;41619;42.816;23.226;2023-04-09T08:14:40;21.48;;;14.90;;
55314;SDS011;41619;42.816;23.226;2023-04-09T08:17:06;22.88;;;16.52;;
55314;SDS011;41619;42.816;23.226;2023-04-09T08:19:31;22.30;;;16.52;;
55314;SDS011;41619;42.816;23.226;2023-04-09T08:21:56;23.23;;;15.38;;
55314;SDS011;41619;42.816;23.226;2023-04-09T08:24:22;22.55;;;15.45;;
55314;SDS011;41619;42.816;23.226;2023-04-09T08:26:48;31.42;;;17.83;;
55314;SDS011;41619;42.816;23.226;2023-04-09T08:29:14;24.35;;;16.52;;
55314;SDS011;41619;42.816;23.226;2023-04-09T08:31:39;23.25;;;15.93;;
55314;SDS011;41619;42.816;23.226;2023-04-09T08:34:05;24.77;;;16.95;;
55314;SDS011;41619;42.816;23.226;2023-04-09T08:36:31;25.52;;;16.65;;
55314;SDS011;41619;42.816;23.226;2023-04-09T08:38:59;25.05;;;17.33;;
55314;SDS011;41619;42.816;23.226;2023-04-09T08:41:25;21.92;;;16.38;;
55314;SDS011;41619;42.816;23.226;2023-04-09T08:43:54;21.33;;;15.05;;
55314;SDS011;41619;42.816;23.226;2023-04-09T08:46:21;25.25;;;16.95;;
55314;SDS011;41619;42.816;23.226;2023-04-09T08:48:47;21.38;;;15.32;;
55314;SDS011;41619;42.816;23.226;2023-04-09T08:51:17;21.95;;;14.48;;
55314;SDS011;41619;42.816;23.226;2023-04-09T08:56:23;23.52;;;16.20;;
55314;SDS011;41619;42.816;23.226;2023-04-09T08:58:49;22.42;;;14.70;;
55314;SDS011;41619;42.816;23.226;2023-04-09T09:06:38;39.72;;;23.63;;
55314;SDS011;41619;42.816;23.226;2023-04-09T09:11:35;18.38;;;13.18;;
55314;SDS011;41619;42.816;23.226;2023-04-09T09:16:27;16.98;;;12.27;;
55314;SDS011;41619;42.816;23.226;2023-04-09T09:18:53;23.88;;;14.70;;
55314;SDS011;41619;42.816;23.226;2023-04-09T09:21:20;20.55;;;15.15;;
55314;SDS011;41619;42.816;23.226;2023-04-09T09:23:45;21.80;;;15.82;;
55314;SDS011;41619;42.816;23.226;2023-04-09T09:28:40;17.02;;;12.52;;
55314;SDS011;41619;42.816;23.226;2023-04-09T09:31:09;17.88;;;11.93;;
55314;SDS011;41619;42.816;23.226;2023-04-09T09:33:35;15.65;;;12.82;;
55314;SDS011;41619;42.816;23.226;2023-04-09T09:36:01;24.20;;;16.88;;
55314;SDS011;41619;42.816;23.226;2023-04-09T09:38:28;23.42;;;15.07;;
55314;SDS011;41619;42.816;23.226;2023-04-09T09:40:53;21.65;;;16.52;;
55314;SDS011;41619;42.816;23.226;2023-04-09T09:43:19;27.70;;;16.67;;
55314;SDS011;41619;42.816;23.226;2023-04-09T09:45:45;24.60;;;17.00;;
55314;SDS011;41619;42.816;23.226;2023-04-09T09:48:11;23.45;;;17.35;;
55314;SDS011;41619;42.816;23.226;2023-04-09T09:50:37;20.08;;;15.55;;
55314;SDS011;41619;42.816;23.226;2023-04-09T09:53:06;22.27;;;15.32;;
55314;SDS011;41619;42.816;23.226;2023-04-09T09:55:33;19.58;;;15.65;;
55314;SDS011;41619;42.816;23.226;2023-04-09T09:58:06;20.80;;;14.35;;
55314;SDS011;41619;42.816;23.226;2023-04-09T10:00:36;21.05;;;15.77;;
55314;SDS011;41619;42.816;23.226;2023-04-09T10:03:19;19.25;;;14.73;;
55314;SDS011;41619;42.816;23.226;2023-04-09T10:05:48;18.15;;;13.77;;
55314;SDS011;41619;42.816;23.226;2023-04-09T10:08:15;18.60;;;13.45;;
55314;SDS011;41619;42.816;23.226;2023-04-09T10:10:42;19.05;;;14.50;;
55314;SDS011;41619;42.816;23.226;2023-04-09T10:13:29;18.83;;;14.27;;
55314;SDS011;41619;42.816;23.226;2023-04-09T10:15:56;21.77;;;13.50;;
55314;SDS011;41619;42.816;23.226;2023-04-09T10:18:23;17.38;;;13.30;;
55314;SDS011;41619;42.816;23.226;2023-04-09T10:20:50;19.55;;;14.02;;
55314;SDS011;41619;42.816;23.226;2023-04-09T10:26:05;14.85;;;10.23;;
55314;SDS011;41619;42.816;23.226;2023-04-09T10:28:30;13.35;;;9.98;;
55314;SDS011;41619;42.816;23.226;2023-04-09T10:30:56;11.68;;;9.40;;
55314;SDS011;41619;42.816;23.226;2023-04-09T10:33:23;13.07;;;10.60;;
55314;SDS011;41619;42.816;23.226;2023-04-09T10:35:53;16.05;;;12.68;;
55314;SDS011;41619;42.816;23.226;2023-04-09T10:38:36;16.63;;;11.35;;
55314;SDS011;41619;42.816;23.226;2023-04-09T10:41:16;16.42;;;11.43;;
55314;SDS011;41619;42.816;23.226;2023-04-09T10:43:47;14.27;;;11.60;;
55314;SDS011;41619;42.816;23.226;2023-04-09T10:46:25;15.00;;;10.90;;
55314;SDS011;41619;42.816;23.226;2023-04-09T10:49:17;14.98;;;11.40;;
55314;SDS011;41619;42.816;23.226;2023-04-09T10:51:50;14.70;;;11.48;;
55314;SDS011;41619;42.816;23.226;2023-04-09T10:59:33;14.40;;;11.05;;
55314;SDS011;41619;42.816;23.226;2023-04-09T11:02:03;14.30;;;10.10;;
55314;SDS011;41619;42.816;23.226;2023-04-09T11:04:40;13.45;;;10.82;;
55314;SDS011;41619;42.816;23.226;2023-04-09T11:07:22;15.20;;;10.52;;
55314;SDS011;41619;42.816;23.226;2023-04-09T11:09:49;12.57;;;10.15;;
55314;SDS011;41619;42.816;23.226;2023-04-09T11:12:15;10.68;;;9.43;;
55314;SDS011;41619;42.816;23.226;2023-04-09T11:14:40;19.60;;;12.38;;
55314;SDS011;41619;42.816;23.226;2023-04-09T11:17:06;14.50;;;10.48;;
55314;SDS011;41619;42.816;23.226;2023-04-09T11:19:32;15.88;;;11.05;;
55314;SDS011;41619;42.816;23.226;2023-04-09T11:21:58;12.40;;;9.15;;
55314;SDS011;41619;42.816;23.226;2023-04-09T11:24:23;10.85;;;8.75;;
55314;SDS011;41619;42.816;23.226;2023-04-09T11:26:49;14.57;;;9.13;;
55314;SDS011;41619;42.816;23.226;2023-04-09T11:29:15;12.35;;;9.80;;
55314;SDS011;41619;42.816;23.226;2023-04-09T11:31:43;10.48;;;8.95;;
55314;SDS011;41619;42.816;23.226;2023-04-09T11:34:09;13.30;;;8.00;;
55314;SDS011;41619;42.816;23.226;2023-04-09T11:36:36;12.23;;;9.68;;
55314;SDS011;41619;42.816;23.226;2023-04-09T11:39:02;12.95;;;9.15;;
55314;SDS011;41619;42.816;23.226;2023-04-09T11:41:46;10.73;;;8.57;;
55314;SDS011;41619;42.816;23.226;2023-04-09T11:44:11;11.27;;;8.65;;
55314;SDS011;41619;42.816;23.226;2023-04-09T11:46:37;10.35;;;8.45;;
55314;SDS011;41619;42.816;23.226;2023-04-09T11:49:04;10.68;;;8.65;;
55314;SDS011;41619;42.816;23.226;2023-04-09T11:51:30;12.95;;;8.27;;
55314;SDS011;41619;42.816;23.226;2023-04-09T11:54:00;11.50;;;8.02;;
55314;SDS011;41619;42.816;23.226;2023-04-09T11:56:28;8.55;;;7.70;;
55314;SDS011;41619;42.816;23.226;2023-04-09T11:58:55;11.75;;;7.65;;
55314;SDS011;41619;42.816;23.226;2023-04-09T12:01:21;8.23;;;7.35;;
55314;SDS011;41619;42.816;23.226;2023-04-09T12:03:53;8.73;;;6.70;;
55314;SDS011;41619;42.816;23.226;2023-04-09T12:06:19;11.88;;;6.47;;
55314;SDS011;41619;42.816;23.226;2023-04-09T12:08:47;8.55;;;6.22;;
55314;SDS011;41619;42.816;23.226;2023-04-09T12:11:17;10.30;;;6.63;;
55314;SDS011;41619;42.816;23.226;2023-04-09T12:13:42;6.85;;;6.15;;
55314;SDS011;41619;42.816;23.226;2023-04-09T12:16:10;45.92;;;25.65;;
55314;SDS011;41619;42.816;23.226;2023-04-09T12:18:36;307.77;;;134.40;;
55314;SDS011;41619;42.816;23.226;2023-04-09T12:21:02;121.00;;;58.53;;
55314;SDS011;41619;42.816;23.226;2023-04-09T12:23:28;35.33;;;20.90;;
55314;SDS011;41619;42.816;23.226;2023-04-09T12:25:57;40.45;;;24.83;;
55314;SDS011;41619;42.816;23.226;2023-04-09T12:30:52;66.88;;;39.70;;
55314;SDS011;41619;42.816;23.226;2023-04-09T12:33:18;32.45;;;25.00;;
55314;SDS011;41619;42.816;23.226;2023-04-09T12:35:44;53.17;;;30.38;;
55314;SDS011;41619;42.816;23.226;2023-04-09T12:38:10;36.42;;;20.67;;
55314;SDS011;41619;42.816;23.226;2023-04-09T12:40:36;59.33;;;30.02;;
55314;SDS011;41619;42.816;23.226;2023-04-09T12:43:01;40.63;;;21.80;;
55314;SDS011;41619;42.816;23.226;2023-04-09T12:45:28;28.23;;;17.02;;
55314;SDS011;41619;42.816;23.226;2023-04-09T12:47:54;24.05;;;14.98;;
55314;SDS011;41619;42.816;23.226;2023-04-09T12:50:20;20.02;;;13.75;;
55314;SDS011;41619;42.816;23.226;2023-04-09T12:52:45;20.30;;;13.13;;
55314;SDS011;41619;42.816;23.226;2023-04-09T12:55:11;18.42;;;12.43;;
55314;SDS011;41619;42.816;23.226;2023-04-09T12:57:38;16.27;;;12.07;;
55314;SDS011;41619;42.816;23.226;2023-04-09T13:00:05;14.82;;;11.68;;
55314;SDS011;41619;42.816;23.226;2023-04-09T13:02:31;18.83;;;12.93;;
55314;SDS011;41619;42.816;23.226;2023-04-09T13:04:58;19.20;;;13.90;;
55314;SDS011;41619;42.816;23.226;2023-04-09T13:07:23;18.60;;;14.35;;
55314;SDS011;41619;42.816;23.226;2023-04-09T13:09:50;16.63;;;12.27;;
55314;SDS011;41619;42.816;23.226;2023-04-09T13:12:16;16.63;;;13.20;;
55314;SDS011;41619;42.816;23.226;2023-04-09T13:14:42;21.20;;;13.98;;
55314;SDS011;41619;42.816;23.226;2023-04-09T13:17:09;70.68;;;33.03;;
55314;SDS011;41619;42.816;23.226;2023-04-09T13:19:34;24.52;;;16.23;;
55314;SDS011;41619;42.816;23.226;2023-04-09T13:22:00;66.93;;;31.40;;
55314;SDS011;41619;42.816;23.226;2023-04-09T13:24:25;89.45;;;42.28;;
55314;SDS011;41619;42.816;23.226;2023-04-09T13:26:51;50.38;;;28.15;;
55314;SDS011;41619;42.816;23.226;2023-04-09T13:29:16;26.10;;;18.05;;
55314;SDS011;41619;42.816;23.226;2023-04-09T13:31:42;41.28;;;26.52;;
55314;SDS011;41619;42.816;23.226;2023-04-09T13:34:07;50.00;;;32.13;;
55314;SDS011;41619;42.816;23.226;2023-04-09T13:36:33;42.95;;;25.33;;
55314;SDS011;41619;42.816;23.226;2023-04-09T13:38:59;52.45;;;29.35;;
55314;SDS011;41619;42.816;23.226;2023-04-09T13:41:33;67.28;;;39.75;;
55314;SDS011;41619;42.816;23.226;2023-04-09T13:43:59;56.97;;;33.25;;
55314;SDS011;41619;42.816;23.226;2023-04-09T13:46:25;53.20;;;33.38;;
55314;SDS011;41619;42.816;23.226;2023-04-09T13:48:51;50.88;;;33.35;;
55314;SDS011;41619;42.816;23.226;2023-04-09T13:51:18;59.17;;;34.15;;
55314;SDS011;41619;42.816;23.226;2023-04-09T13:53:45;47.78;;;30.38;;
55314;SDS011;41619;42.816;23.226;2023-04-09T13:56:12;61.15;;;35.40;;
55314;SDS011;41619;42.816;23.226;2023-04-09T13:58:37;36.90;;;26.10;;
55314;SDS011;41619;42.816;23.226;2023-04-09T14:01:03;35.53;;;21.98;;
55314;SDS011;41619;42.816;23.226;2023-04-09T14:03:30;30.65;;;21.95;;
55314;SDS011;41619;42.816;23.226;2023-04-09T14:05:55;39.28;;;24.27;;
55314;SDS011;41619;42.816;23.226;2023-04-09T14:08:21;35.10;;;22.05;;
55314;SDS011;41619;42.816;23.226;2023-04-09T14:10:46;38.90;;;23.73;;
55314;SDS011;41619;42.816;23.226;2023-04-09T14:13:12;46.75;;;29.98;;
55314;SDS011;41619;42.816;23.226;2023-04-09T14:15:37;46.40;;;31.52;;
55314;SDS011;41619;42.816;23.226;2023-04-09T14:18:03;47.72;;;30.17;;
55314;SDS011;41619;42.816;23.226;2023-04-09T14:20:28;56.13;;;30.27;;
55314;SDS011;41619;42.816;23.226;2023-04-09T14:22:54;68.75;;;38.53;;
55314;SDS011;41619;42.816;23.226;2023-04-09T14:25:19;62.70;;;38.10;;
55314;SDS011;41619;42.816;23.226;2023-04-09T14:27:45;75.25;;;45.08;;
55314;SDS011;41619;42.816;23.226;2023-04-09T14:30:11;77.90;;;42.95;;
55314;SDS011;41619;42.816;23.226;2023-04-09T14:32:36;60.28;;;34.80;;
55314;SDS011;41619;42.816;23.226;2023-04-09T14:35:02;35.95;;;24.50;;
55314;SDS011;41619;42.816;23.226;2023-04-09T14:37:27;41.03;;;26.92;;
55314;SDS011;41619;42.816;23.226;2023-04-09T14:39:53;59.28;;;35.55;;
55314;SDS011;41619;42.816;23.226;2023-04-09T14:42:18;67.80;;;36.65;;
55314;SDS011;41619;42.816;23.226;2023-04-09T14:44:43;52.78;;;31.08;;
55314;SDS011;41619;42.816;23.226;2023-04-09T14:47:09;35.60;;;23.83;;
55314;SDS011;41619;42.816;23.226;2023-04-09T14:49:35;39.33;;;26.35;;